createdAt,value
2019-04-09T00:00:22.103Z,99630.30
2019-04-09T00:05:27.481Z,99634.55
2019-04-09T00:10:33.065Z,99638.88
2019-04-09T00:15:38.187Z,99639.65
2019-04-09T00:20:43.168Z,99640.41
2019-04-09T00:25:48.144Z,99641.64
2019-04-09T00:30:54.270Z,99642.90
2019-04-09T00:35:59.335Z,99646.42
2019-04-09T00:41:04.746Z,99652.72
2019-04-09T00:46:09.883Z,99653.81
2019-04-09T00:51:14.910Z,99652.66
2019-04-09T00:56:25.387Z,99659.91
2019-04-09T01:01:32.379Z,99671.16
2019-04-09T01:06:37.363Z,99663.16
2019-04-09T01:11:43.584Z,99668.71
2019-04-09T01:16:48.974Z,99674.17
2019-04-09T01:21:54.208Z,99673.56
2019-04-09T01:27:16.216Z,99675.58
2019-04-09T01:32:24.904Z,99682.85
2019-04-09T01:37:43.179Z,99684.17
2019-04-09T01:43:02.108Z,99685.38
2019-04-09T01:48:22.188Z,99680.42
2019-04-09T01:53:36.484Z,99678.26
2019-04-09T01:59:00.809Z,99679.58
2019-04-09T02:04:12.769Z,99676.18
2019-04-09T02:09:35.965Z,99677.34
2019-04-09T02:15:03.052Z,99682.41
2019-04-09T02:20:18.887Z,99680.58
2019-04-09T02:25:30.789Z,99682.23
2019-04-09T02:30:50.120Z,99686.73
2019-04-09T02:36:20.211Z,99683.45
2019-04-09T02:41:44.130Z,99683.02
2019-04-09T02:47:09.397Z,99690.47
2019-04-09T02:52:21.115Z,99689.33
2019-04-09T02:57:49.025Z,99693.98
2019-04-09T03:03:03.175Z,99691.17
2019-04-09T03:08:17.613Z,99701.16
2019-04-09T03:13:41.288Z,99705.92
2019-04-09T03:19:12.212Z,99704.17
2019-04-09T03:24:28.129Z,99705.88
2019-04-09T03:29:44.963Z,99703.00
2019-04-09T03:35:21.248Z,99701.46
2019-04-09T03:40:58.869Z,99716.36
2019-04-09T03:46:24.429Z,99709.70
2019-04-09T03:51:52.001Z,99711.95
2019-04-09T03:57:19.740Z,99723.97
2019-04-09T04:02:55.150Z,99725.03
2019-04-09T04:08:08.937Z,99735.03
2019-04-09T04:13:24.749Z,99734.45
2019-04-09T04:18:54.594Z,99742.37
2019-04-09T04:24:18.776Z,99746.52
2019-04-09T04:29:39.973Z,99743.70
2019-04-09T04:35:10.608Z,99750.45
2019-04-09T04:40:27.313Z,99751.64
2019-04-09T04:45:48.686Z,99751.72
2019-04-09T04:51:08.467Z,99750.20
2019-04-09T04:56:32.055Z,99759.93
2019-04-09T05:02:02.521Z,99761.25
2019-04-09T05:07:17.766Z,99764.14
2019-04-09T05:12:40.754Z,99774.25
2019-04-09T05:18:20.805Z,99778.84
2019-04-09T05:23:47.950Z,99785.19
2019-04-09T05:29:09.722Z,99787.80
2019-04-09T05:34:33.823Z,99797.23
2019-04-09T05:40:16.956Z,99807.32
2019-04-09T05:45:28.487Z,99804.15
2019-04-09T05:50:51.020Z,99812.17
2019-04-09T05:56:15.994Z,99818.35
2019-04-09T06:01:32.526Z,99814.69
2019-04-09T06:07:03.337Z,99819.30
2019-04-09T06:12:09.249Z,99826.63
2019-04-09T06:17:16.947Z,99826.28
2019-04-09T06:22:25.370Z,99832.03
2019-04-09T06:27:32.132Z,99828.83
2019-04-09T06:33:03.753Z,99832.87
2019-04-09T06:38:27.326Z,99840.55
2019-04-09T06:50:59.096Z,99836.91
2019-04-09T06:56:51.720Z,99833.77
2019-04-09T07:02:05.804Z,99837.95
2019-04-09T07:07:47.795Z,99844.06
2019-04-09T07:13:42.026Z,99844.73
2019-04-09T07:18:59.843Z,99848.14
2019-04-09T07:24:27.853Z,99844.91
2019-04-09T07:29:55.534Z,99850.84
2019-04-09T07:35:16.625Z,99853.36
2019-04-09T07:40:56.946Z,99844.22
2019-04-09T07:46:32.228Z,99846.03
2019-04-09T07:51:57.177Z,99853.49
2019-04-09T07:57:21.903Z,99852.45
2019-04-09T08:02:50.577Z,99850.42
2019-04-09T08:08:14.854Z,99861.03
2019-04-09T08:13:40.677Z,99859.75
2019-04-09T08:19:10.288Z,99865.98
2019-04-09T08:24:39.889Z,99870.04
2019-04-09T08:30:17.085Z,99863.36
2019-04-09T08:35:28.498Z,99867.12
2019-04-09T08:41:05.176Z,99871.58
2019-04-09T08:46:42.581Z,99877.69
2019-04-09T08:52:08.042Z,99877.17
2019-04-09T08:57:20.218Z,99883.73
2019-04-09T09:02:52.860Z,99884.81
2019-04-09T09:08:38.152Z,99885.89
2019-04-09T09:13:54.023Z,99882.62
2019-04-09T09:19:16.171Z,99887.28
2019-04-09T09:24:31.800Z,99877.50
2019-04-09T09:29:57.656Z,99874.84
2019-04-09T09:35:13.942Z,99875.31
2019-04-09T09:40:40.864Z,99875.06
2019-04-09T09:45:53.721Z,99875.86
2019-04-09T09:51:30.151Z,99879.81
2019-04-09T09:56:52.310Z,99882.95
2019-04-09T10:02:16.546Z,99880.16
2019-04-09T10:08:05.917Z,99872.98
2019-04-09T10:13:25.760Z,99872.96
2019-04-09T10:18:59.185Z,99870.77
2019-04-09T10:24:21.320Z,99868.58
2019-04-09T10:29:38.996Z,99866.59
2019-04-09T10:34:56.361Z,99866.38
2019-04-09T10:40:09.670Z,99866.95
2019-04-09T10:45:35.433Z,99868.56
2019-04-09T10:50:58.895Z,99859.48
2019-04-09T10:56:33.078Z,99859.55
2019-04-09T11:02:01.376Z,99861.33
2019-04-09T11:07:45.997Z,99852.99
2019-04-09T11:13:19.187Z,99869.02
2019-04-09T11:18:55.945Z,99864.66
2019-04-09T11:24:13.648Z,99859.13
2019-04-09T11:29:30.879Z,99865.83
2019-04-09T11:35:06.071Z,99858.47
2019-04-09T11:40:19.015Z,99854.33
2019-04-09T11:45:58.431Z,99863.58
2019-04-09T11:51:23.606Z,99868.27
2019-04-09T11:56:50.499Z,99877.06
2019-04-09T12:02:11.341Z,99863.20
2019-04-09T12:07:30.948Z,99861.52
2019-04-09T12:12:53.799Z,99865.03
2019-04-09T12:18:26.118Z,99849.11
2019-04-09T12:23:58.594Z,99848.28
2019-04-09T12:29:25.314Z,99848.80
2019-04-09T12:34:40.815Z,99844.60
2019-04-09T12:40:12.753Z,99850.28
2019-04-09T12:45:34.336Z,99856.77
2019-04-09T12:50:56.390Z,99853.34
2019-04-09T12:56:18.136Z,99853.64
2019-04-09T13:01:44.886Z,99854.48
2019-04-09T13:07:02.718Z,99850.48
2019-04-09T13:12:44.423Z,99846.46
2019-04-09T13:18:06.764Z,99839.19
2019-04-09T13:23:26.149Z,99830.17
2019-04-09T13:28:48.230Z,99828.20
2019-04-09T13:34:15.331Z,99821.34
2019-04-09T13:39:39.996Z,99811.60
2019-04-09T13:45:04.040Z,99810.95
2019-04-09T13:55:41.473Z,99809.24
2019-04-09T14:00:46.131Z,99805.89
2019-04-09T14:05:50.772Z,99794.53
2019-04-09T14:10:58.034Z,99804.27
2019-04-09T14:16:04.812Z,99797.55
2019-04-09T14:21:08.986Z,99792.45
2019-04-09T14:26:13.986Z,99784.47
2019-04-09T14:31:18.310Z,99782.27
2019-04-09T14:36:22.267Z,99793.91
2019-04-09T14:41:26.583Z,99786.50
2019-04-09T14:46:31.295Z,99777.33
2019-04-09T14:51:35.945Z,99769.83
2019-04-09T14:56:52.256Z,99770.59
2019-04-09T15:01:57.357Z,99769.95
2019-04-09T15:07:01.500Z,99766.53
2019-04-09T15:12:05.700Z,99763.70
2019-04-09T15:17:10.146Z,99770.20
2019-04-09T15:22:18.255Z,99765.66
2019-04-09T15:27:23.790Z,99758.89
2019-04-09T15:32:29.091Z,99760.05
2019-04-09T15:37:35.287Z,99750.63
2019-04-09T15:42:42.361Z,99755.91
2019-04-09T15:47:49.644Z,99749.42
2019-04-09T15:53:06.833Z,99752.77
2019-04-09T15:58:12.546Z,99754.78
2019-04-09T16:03:23.560Z,99758.77
2019-04-09T16:08:26.056Z,99762.32
2019-04-09T16:13:32.843Z,99756.92
2019-04-09T16:18:39.139Z,99757.33
2019-04-09T16:23:50.622Z,99759.41
2019-04-09T16:28:57.059Z,99764.00
2019-04-09T16:34:06.386Z,99762.50
2019-04-09T16:39:10.650Z,99768.55
2019-04-09T16:44:16.387Z,99766.34
2019-04-09T16:49:22.826Z,99767.77
2019-04-09T16:54:49.372Z,99766.16
2019-04-09T16:59:59.656Z,99769.97
2019-04-09T17:05:30.479Z,99773.33
2019-04-09T17:10:37.757Z,99778.22
2019-04-09T17:15:44.142Z,99780.25
2019-04-09T17:20:51.235Z,99781.58
2019-04-09T17:26:03.419Z,99790.39
2019-04-09T17:31:09.023Z,99792.36
2019-04-09T17:36:27.200Z,99797.00
2019-04-09T17:41:32.650Z,99794.70
2019-04-09T17:47:09.719Z,99795.63
2019-04-09T17:52:28.397Z,99796.72
2019-04-09T17:57:35.782Z,99797.37
2019-04-09T18:02:42.623Z,99813.39
2019-04-09T18:07:48.870Z,99809.45
2019-04-09T18:13:07.593Z,99815.70
2019-04-09T18:18:13.703Z,99822.62
2019-04-09T18:23:25.094Z,99830.66
2019-04-09T18:28:30.870Z,99838.69
2019-04-09T18:33:36.388Z,99847.89
2019-04-09T18:38:41.871Z,99844.09
2019-04-09T18:44:04.398Z,99851.84
2019-04-09T18:49:10.536Z,99862.20
2019-04-09T18:54:18.167Z,99872.09
2019-04-09T18:59:23.360Z,99867.41
2019-04-09T19:04:28.483Z,99875.60
2019-04-09T19:09:34.574Z,99878.77
2019-04-09T19:14:41.836Z,99886.82
2019-04-09T19:19:48.871Z,99881.44
2019-04-09T19:24:55.649Z,99889.94
2019-04-09T19:30:03.816Z,99891.66
2019-04-09T19:35:18.924Z,99895.16
2019-04-09T19:40:25.801Z,99888.47
2019-04-09T19:45:49.904Z,99896.09
2019-04-09T19:50:56.281Z,99897.98
2019-04-09T19:56:06.777Z,99903.31
2019-04-09T20:01:14.202Z,99896.91
2019-04-09T20:06:19.541Z,99901.20
2019-04-09T20:11:25.535Z,99894.99
2019-04-09T20:16:31.575Z,99902.27
2019-04-09T20:21:37.058Z,99905.48
2019-04-09T20:26:44.232Z,99904.81
2019-04-09T20:31:49.869Z,99912.70
2019-04-09T20:36:55.657Z,99903.06
2019-04-09T20:42:02.297Z,99910.61
2019-04-09T20:47:27.431Z,99914.86
2019-04-09T20:52:37.970Z,99916.23
2019-04-09T20:57:44.117Z,99921.98
2019-04-09T21:03:00.501Z,99920.48
2019-04-09T21:08:07.034Z,99921.90
2019-04-09T21:13:13.290Z,99925.23
2019-04-09T21:18:20.243Z,99923.76
2019-04-09T21:23:28.101Z,99929.27
2019-04-09T21:28:33.686Z,99935.72
2019-04-09T21:33:39.989Z,99943.32
2019-04-09T21:38:48.330Z,99944.31
2019-04-09T21:43:53.377Z,99950.54
2019-04-09T21:49:01.914Z,99953.64
2019-04-09T21:54:09.304Z,99954.97
2019-04-09T21:59:14.305Z,99952.64
2019-04-09T22:04:21.215Z,99950.61
2019-04-09T22:09:27.180Z,99950.22
2019-04-09T22:14:32.734Z,99952.42
2019-04-09T22:19:38.787Z,99950.00
2019-04-09T22:24:43.827Z,99958.64
2019-04-09T22:29:49.657Z,99956.27
2019-04-09T22:34:54.802Z,99955.98
2019-04-09T22:39:59.824Z,99961.52
2019-04-09T22:45:05.286Z,99959.57
2019-04-09T22:50:10.646Z,99961.16
2019-04-09T22:55:16.174Z,99957.75
2019-04-09T23:00:43.359Z,99956.25
2019-04-09T23:06:07.273Z,99958.96
2019-04-09T23:11:25.214Z,99962.02
2019-04-09T23:16:31.006Z,99970.31
2019-04-09T23:21:36.653Z,99958.11
2019-04-09T23:26:41.791Z,99966.72
2019-04-09T23:31:47.396Z,99969.16
2019-04-09T23:36:58.619Z,99970.79
2019-04-09T23:42:00.888Z,99972.68
2019-04-09T23:47:11.206Z,99977.07
2019-04-09T23:52:16.540Z,99986.05
2019-04-09T23:57:22.431Z,99980.59
